Time;durP1;ratioP1;P1;durP2;ratioP2;P2;SDS_P1;SDS_P2;PMS_P1;PMS_P2;Temp;Humidity;BMP_temperature;BMP_pressure;BME280_temperature;BME280_humidity;BME280_pressure;Samples;Min_cycle;Max_cycle;Signal;HPM_P1;HPM_P2
2023/08/04 00:00:33;;;;;;;1.70;0.60;;;;;;;;;;4968433;28;20179;-84
2023/08/04 00:03:38;;;;;;;1.40;0.40;;;;;;;;;;4957268;28;20179;-85
2023/08/04 00:06:42;;;;;;;0.70;0.60;;;;;;;;;;4957823;28;20198;-84
2023/08/04 00:09:46;;;;;;;2.10;0.57;;;;;;;;;;4968183;28;20552;-84
2023/08/04 00:12:50;;;;;;;0.70;0.43;;;;;;;;;;4958790;28;20187;-84
2023/08/04 00:15:54;;;;;;;1.30;0.50;;;;;;;;;;4967607;28;20222;-85
2023/08/04 00:18:58;;;;;;;3.40;0.70;;;;;;;;;;4968131;28;20183;-84
2023/08/04 00:22:03;;;;;;;3.00;0.60;;;;;;;;;;4957413;28;20175;-84
2023/08/04 00:25:07;;;;;;;5.33;1.10;;;;;;;;;;4957027;28;20223;-84
2023/08/04 00:28:12;;;;;;;1.03;0.60;;;;;;;;;;4956087;28;20179;-84
2023/08/04 00:31:16;;;;;;;1.20;0.60;;;;;;;;;;4978787;28;20207;-84
2023/08/04 00:34:20;;;;;;;1.27;0.67;;;;;;;;;;4957611;28;20178;-84
2023/08/04 00:37:24;;;;;;;1.73;0.63;;;;;;;;;;4971894;28;20179;-84
2023/08/04 00:40:29;;;;;;;1.17;0.43;;;;;;;;;;4959901;28;20179;-84
2023/08/04 00:43:34;;;;;;;5.70;1.17;;;;;;;;;;4961215;28;20183;-84
2023/08/04 00:46:38;;;;;;;1.80;0.80;;;;;;;;;;4971198;28;20183;-85
2023/08/04 00:49:45;;;;;;;2.93;0.70;;;;;;;;;;4960030;28;20175;-84
2023/08/04 00:52:50;;;;;;;3.07;1.10;;;;;;;;;;4960216;28;20179;-85
2023/08/04 00:55:54;;;;;;;3.93;1.07;;;;;;;;;;4970755;28;20214;-85
2023/08/04 00:58:59;;;;;;;3.37;0.80;;;;;;;;;;4971098;28;20195;-84
2023/08/04 01:02:03;;;;;;;1.20;0.80;;;;;;;;;;4959503;28;20634;-84
2023/08/04 01:05:07;;;;;;;3.40;0.90;;;;;;;;;;4970174;28;20223;-85
2023/08/04 01:08:18;;;;;;;1.43;0.80;;;;;;;;;;4959894;28;20183;-84
2023/08/04 01:11:26;;;;;;;1.90;0.77;;;;;;;;;;4969834;28;20210;-84
2023/08/04 01:14:31;;;;;;;2.33;0.80;;;;;;;;;;4959558;28;20215;-84
2023/08/04 01:17:36;;;;;;;1.63;0.70;;;;;;;;;;4970129;28;20179;-84
2023/08/04 01:20:40;;;;;;;3.47;0.90;;;;;;;;;;4958762;28;20179;-84
2023/08/04 01:23:44;;;;;;;1.37;0.77;;;;;;;;;;4969798;28;20183;-85
2023/08/04 01:26:49;;;;;;;1.67;0.67;;;;;;;;;;4969296;28;20202;-84
2023/08/04 01:29:57;;;;;;;2.43;0.80;;;;;;;;;;4957929;28;20179;-84
2023/08/04 01:33:01;;;;;;;2.27;0.90;;;;;;;;;;4980985;28;20187;-84
2023/08/04 01:36:05;;;;;;;1.37;0.97;;;;;;;;;;4968244;28;20218;-84
2023/08/04 01:39:09;;;;;;;1.70;0.90;;;;;;;;;;4969590;28;20183;-85
2023/08/04 01:42:13;;;;;;;3.17;1.00;;;;;;;;;;4968976;28;20175;-84
2023/08/04 01:45:17;;;;;;;3.80;1.13;;;;;;;;;;4969155;28;20222;-84
2023/08/04 01:48:22;;;;;;;2.57;0.97;;;;;;;;;;4958230;28;20198;-84
2023/08/04 01:51:26;;;;;;;2.70;1.03;;;;;;;;;;4963706;28;20222;-84
2023/08/04 01:54:30;;;;;;;2.40;0.90;;;;;;;;;;4969666;28;20218;-85
2023/08/04 01:57:35;;;;;;;3.10;1.10;;;;;;;;;;4959059;28;20183;-84
2023/08/04 02:00:39;;;;;;;5.33;0.93;;;;;;;;;;4958529;28;20199;-84
2023/08/04 02:03:43;;;;;;;1.93;1.00;;;;;;;;;;4959471;28;20199;-84
2023/08/04 02:06:48;;;;;;;1.53;0.90;;;;;;;;;;4959391;28;20179;-84
2023/08/04 02:09:52;;;;;;;2.90;1.10;;;;;;;;;;4960499;28;20654;-84
2023/08/04 02:12:56;;;;;;;2.17;1.00;;;;;;;;;;4959326;28;20183;-84
2023/08/04 02:16:01;;;;;;;4.93;0.80;;;;;;;;;;4981105;28;20230;-85
2023/08/04 02:19:09;;;;;;;2.23;0.80;;;;;;;;;;4958884;28;20179;-84
2023/08/04 02:22:13;;;;;;;1.97;1.00;;;;;;;;;;4969685;28;20171;-84
2023/08/04 02:25:17;;;;;;;1.07;0.70;;;;;;;;;;4958359;28;20218;-85
2023/08/04 02:28:22;;;;;;;1.60;0.93;;;;;;;;;;4957687;28;20179;-84
2023/08/04 02:31:28;;;;;;;1.83;0.87;;;;;;;;;;4959535;28;20207;-84
2023/08/04 02:34:32;;;;;;;2.17;0.97;;;;;;;;;;4968836;28;20240;-84
2023/08/04 02:37:36;;;;;;;2.53;0.80;;;;;;;;;;4957310;28;20198;-84
2023/08/04 02:40:40;;;;;;;1.17;0.70;;;;;;;;;;4968969;28;20179;-85
2023/08/04 02:43:44;;;;;;;3.93;1.00;;;;;;;;;;4957367;28;20182;-84
2023/08/04 02:46:49;;;;;;;1.10;0.60;;;;;;;;;;4957282;28;20182;-84
2023/08/04 02:49:53;;;;;;;1.73;0.90;;;;;;;;;;4968151;28;20520;-84
2023/08/04 02:52:57;;;;;;;1.87;1.03;;;;;;;;;;4968346;28;20179;-84
2023/08/04 02:56:09;;;;;;;2.40;1.00;;;;;;;;;;4969313;28;20214;-84
2023/08/04 02:59:13;;;;;;;1.67;0.83;;;;;;;;;;4958581;28;20183;-85
2023/08/04 03:02:17;;;;;;;2.37;0.83;;;;;;;;;;4968907;28;20175;-84
2023/08/04 03:05:21;;;;;;;2.43;0.83;;;;;;;;;;4959225;28;20230;-84
2023/08/04 03:08:26;;;;;;;4.90;0.90;;;;;;;;;;4968806;28;20182;-85
2023/08/04 03:11:31;;;;;;;1.43;0.70;;;;;;;;;;4978152;28;20218;-85
2023/08/04 03:14:35;;;;;;;1.67;0.90;;;;;;;;;;4968852;28;20203;-84
2023/08/04 03:17:39;;;;;;;1.53;0.80;;;;;;;;;;4982772;28;20203;-85
2023/08/04 03:20:43;;;;;;;1.93;0.80;;;;;;;;;;4959082;28;20174;-85
2023/08/04 03:23:48;;;;;;;1.30;0.70;;;;;;;;;;4958643;28;20626;-85
2023/08/04 03:26:52;;;;;;;3.87;1.10;;;;;;;;;;4956945;28;20654;-85
2023/08/04 03:29:56;;;;;;;2.53;0.80;;;;;;;;;;4956410;28;20178;-85
2023/08/04 03:33:00;;;;;;;1.73;0.80;;;;;;;;;;4955700;28;20516;-84
2023/08/04 03:36:05;;;;;;;4.27;1.20;;;;;;;;;;4967829;28;20214;-85
2023/08/04 03:39:09;;;;;;;1.67;0.77;;;;;;;;;;4956656;28;20191;-85
2023/08/04 03:42:13;;;;;;;2.37;0.93;;;;;;;;;;4965885;28;20183;-85
2023/08/04 03:45:17;;;;;;;4.30;1.60;;;;;;;;;;4967014;28;20222;-85
2023/08/04 03:48:21;;;;;;;1.27;0.80;;;;;;;;;;4956497;28;20178;-85
2023/08/04 03:51:25;;;;;;;2.60;1.03;;;;;;;;;;4967362;28;20214;-85
2023/08/04 03:54:30;;;;;;;3.43;0.80;;;;;;;;;;4966329;28;20218;-84
2023/08/04 03:57:34;;;;;;;6.83;0.90;;;;;;;;;;4961185;28;20198;-85
2023/08/04 04:00:38;;;;;;;4.20;0.80;;;;;;;;;;4956823;28;20186;-85
2023/08/04 04:03:42;;;;;;;2.20;0.90;;;;;;;;;;4956221;28;20631;-85
2023/08/04 04:06:46;;;;;;;1.87;0.70;;;;;;;;;;4956142;28;20183;-85
2023/08/04 04:09:51;;;;;;;2.30;0.87;;;;;;;;;;4956417;28;20182;-84
2023/08/04 04:12:55;;;;;;;2.27;1.10;;;;;;;;;;4983156;28;20202;-85
2023/08/04 04:16:01;;;;;;;2.40;1.37;;;;;;;;;;4989498;28;20217;-84
2023/08/04 04:19:05;;;;;;;1.60;0.80;;;;;;;;;;5006753;28;20190;-84
2023/08/04 04:22:10;;;;;;;2.10;0.70;;;;;;;;;;4994059;28;20178;-84
2023/08/04 04:25:14;;;;;;;1.47;0.70;;;;;;;;;;4982792;28;20221;-84
2023/08/04 04:28:19;;;;;;;2.67;0.80;;;;;;;;;;4992300;28;20202;-84
2023/08/04 04:31:23;;;;;;;2.83;0.90;;;;;;;;;;5004625;28;20210;-84
2023/08/04 04:34:30;;;;;;;4.03;1.00;;;;;;;;;;4993109;28;20182;-85
2023/08/04 04:37:34;;;;;;;0.97;0.73;;;;;;;;;;5002167;28;20515;-84
2023/08/04 04:40:39;;;;;;;1.30;0.70;;;;;;;;;;4990679;28;20181;-84
2023/08/04 04:43:43;;;;;;;4.60;0.70;;;;;;;;;;4988953;28;20178;-84
2023/08/04 04:46:47;;;;;;;1.17;0.70;;;;;;;;;;4963139;28;20203;-84
2023/08/04 04:49:52;;;;;;;2.07;0.87;;;;;;;;;;4962223;28;20203;-84
2023/08/04 04:52:56;;;;;;;1.73;0.80;;;;;;;;;;4964260;28;20211;-85
2023/08/04 04:56:00;;;;;;;5.57;0.90;;;;;;;;;;4964298;28;20222;-85
2023/08/04 04:59:04;;;;;;;3.37;0.80;;;;;;;;;;4976226;28;20190;-84
2023/08/04 05:02:09;;;;;;;2.57;0.90;;;;;;;;;;4976168;28;20175;-84
2023/08/04 05:05:13;;;;;;;1.07;0.60;;;;;;;;;;4963546;28;20226;-84
2023/08/04 05:08:17;;;;;;;2.07;0.90;;;;;;;;;;4965272;28;20175;-83
2023/08/04 05:11:21;;;;;;;1.57;0.70;;;;;;;;;;4960436;28;20210;-83
2023/08/04 05:14:25;;;;;;;1.10;0.57;;;;;;;;;;4966747;28;20550;-84
2023/08/04 05:17:29;;;;;;;1.90;0.80;;;;;;;;;;4980535;28;20194;-84
2023/08/04 05:20:33;;;;;;;1.83;0.87;;;;;;;;;;4980131;28;20186;-84
2023/08/04 05:23:37;;;;;;;1.57;0.77;;;;;;;;;;4982911;28;20174;-84
2023/08/04 05:26:42;;;;;;;1.27;0.80;;;;;;;;;;4983001;28;20197;-84
2023/08/04 05:29:46;;;;;;;1.37;0.67;;;;;;;;;;5002374;28;20182;-84
2023/08/04 05:32:50;;;;;;;2.10;0.70;;;;;;;;;;5001766;28;20213;-84
2023/08/04 05:35:54;;;;;;;5.80;0.80;;;;;;;;;;4993646;28;20217;-84
2023/08/04 05:38:58;;;;;;;2.40;0.80;;;;;;;;;;5009230;28;20198;-84
2023/08/04 05:42:03;;;;;;;3.53;0.70;;;;;;;;;;4984087;28;20201;-85
2023/08/04 05:45:09;;;;;;;1.67;0.97;;;;;;;;;;5004591;28;20222;-84
2023/08/04 05:48:13;;;;;;;2.07;0.60;;;;;;;;;;5029316;22;20254;-84
2023/08/04 05:51:17;;;;;;;2.60;0.63;;;;;;;;;;5003642;28;20209;-80
2023/08/04 05:54:21;;;;;;;2.83;0.93;;;;;;;;;;5013358;28;20185;-80
2023/08/04 05:57:25;;;;;;;1.70;0.67;;;;;;;;;;5001687;28;20201;-80
2023/08/04 06:00:30;;;;;;;1.10;0.60;;;;;;;;;;4993250;28;20178;-80
2023/08/04 06:03:34;;;;;;;2.33;0.77;;;;;;;;;;4993375;28;20173;-80
2023/08/04 06:06:38;;;;;;;0.90;0.70;;;;;;;;;;4982426;28;20177;-80
2023/08/04 06:09:42;;;;;;;2.90;0.80;;;;;;;;;;5002903;28;20221;-80
2023/08/04 06:12:47;;;;;;;3.93;0.90;;;;;;;;;;4993186;28;20206;-80
2023/08/04 06:15:51;;;;;;;3.30;0.80;;;;;;;;;;5004458;28;20517;-79
2023/08/04 06:18:58;;;;;;;2.30;0.67;;;;;;;;;;4993303;28;20221;-80
2023/08/04 06:22:02;;;;;;;6.17;0.90;;;;;;;;;;4992772;28;20182;-80
2023/08/04 06:25:06;;;;;;;2.10;0.67;;;;;;;;;;5003781;28;20182;-79
2023/08/04 06:28:10;;;;;;;1.30;0.70;;;;;;;;;;5003791;28;20217;-80
2023/08/04 06:31:15;;;;;;;3.70;0.80;;;;;;;;;;5003482;28;20178;-80
2023/08/04 06:34:19;;;;;;;0.70;0.70;;;;;;;;;;5004047;28;20181;-80
2023/08/04 06:37:23;;;;;;;1.50;0.77;;;;;;;;;;4993142;28;20182;-80
2023/08/04 06:40:27;;;;;;;0.87;0.60;;;;;;;;;;4991562;28;20549;-80
2023/08/04 06:43:31;;;;;;;1.67;0.93;;;;;;;;;;5002848;28;20186;-79
2023/08/04 06:46:35;;;;;;;1.80;0.67;;;;;;;;;;5003173;28;20177;-80
2023/08/04 06:49:41;;;;;;;1.07;0.60;;;;;;;;;;4992022;28;20217;-80
2023/08/04 06:52:47;;;;;;;1.70;0.87;;;;;;;;;;5003174;28;20210;-81
2023/08/04 06:55:51;;;;;;;1.83;0.60;;;;;;;;;;5003663;28;20545;-79
2023/08/04 06:58:54;;;;;;;1.80;0.90;;;;;;;;;;5003508;28;20217;-80
2023/08/04 07:01:59;;;;;;;4.10;0.70;;;;;;;;;;4991832;28;20178;-80
2023/08/04 07:05:04;;;;;;;1.83;0.70;;;;;;;;;;5003151;28;20182;-80
2023/08/04 07:08:08;;;;;;;1.00;0.60;;;;;;;;;;5003316;28;20220;-80
2023/08/04 07:11:16;;;;;;;1.33;0.80;;;;;;;;;;5003406;28;20181;-80
2023/08/04 07:14:21;;;;;;;1.30;0.70;;;;;;;;;;4991904;28;20221;-80
2023/08/04 07:17:25;;;;;;;1.33;0.80;;;;;;;;;;4991936;28;20186;-80
2023/08/04 07:20:31;;;;;;;1.87;0.60;;;;;;;;;;4992579;28;20181;-80
2023/08/04 07:23:35;;;;;;;1.50;0.70;;;;;;;;;;4994021;28;20185;-80
2023/08/04 07:26:39;;;;;;;1.37;0.50;;;;;;;;;;4992904;28;20178;-80
2023/08/04 07:29:43;;;;;;;1.30;0.70;;;;;;;;;;5004491;28;20549;-80
2023/08/04 07:32:48;;;;;;;1.87;0.70;;;;;;;;;;5006198;28;20206;-80
2023/08/04 07:35:53;;;;;;;1.57;0.70;;;;;;;;;;5006176;28;20177;-80
2023/08/04 07:38:57;;;;;;;1.40;0.50;;;;;;;;;;5016152;28;20217;-81
2023/08/04 07:42:03;;;;;;;3.07;0.60;;;;;;;;;;4990919;28;20177;-81
2023/08/04 07:45:07;;;;;;;1.83;0.80;;;;;;;;;;5001748;28;20264;-81
2023/08/04 07:48:11;;;;;;;1.23;0.80;;;;;;;;;;5012969;28;20220;-81
2023/08/04 07:51:16;;;;;;;2.13;0.93;;;;;;;;;;5010967;28;20663;-80
2023/08/04 07:54:20;;;;;;;4.40;0.63;;;;;;;;;;4982790;28;20178;-81
2023/08/04 07:57:25;;;;;;;1.53;0.60;;;;;;;;;;5007698;28;20201;-81
2023/08/04 08:00:29;;;;;;;0.87;0.50;;;;;;;;;;4971408;28;20186;-81
2023/08/04 08:03:34;;;;;;;1.20;0.70;;;;;;;;;;4971476;28;20174;-80
2023/08/04 08:06:38;;;;;;;1.70;0.50;;;;;;;;;;4994571;28;20174;-80
2023/08/04 08:09:43;;;;;;;1.47;0.70;;;;;;;;;;4993273;28;20569;-80
2023/08/04 08:12:47;;;;;;;1.33;0.50;;;;;;;;;;4990840;28;20213;-81
2023/08/04 08:15:51;;;;;;;0.93;0.67;;;;;;;;;;4990761;28;20194;-81
2023/08/04 08:18:55;;;;;;;1.30;0.57;;;;;;;;;;5014164;28;20217;-81
2023/08/04 08:22:00;;;;;;;0.90;0.70;;;;;;;;;;5002077;28;20181;-81
2023/08/04 08:25:04;;;;;;;1.37;0.70;;;;;;;;;;5013165;28;20541;-81
2023/08/04 08:28:08;;;;;;;1.43;0.70;;;;;;;;;;4979792;28;20696;-81
2023/08/04 08:31:12;;;;;;;1.60;0.60;;;;;;;;;;4991166;28;20178;-82
2023/08/04 08:34:16;;;;;;;1.63;0.60;;;;;;;;;;4991623;28;20181;-81
2023/08/04 08:37:20;;;;;;;1.43;0.67;;;;;;;;;;5013374;28;20181;-81
2023/08/04 08:40:25;;;;;;;1.40;0.60;;;;;;;;;;5013175;28;20205;-81
2023/08/04 08:43:29;;;;;;;1.00;0.70;;;;;;;;;;5001609;28;20178;-81
2023/08/04 08:46:33;;;;;;;1.03;0.50;;;;;;;;;;5013658;28;20185;-81
2023/08/04 08:49:44;;;;;;;1.73;0.60;;;;;;;;;;4991789;28;20580;-81
2023/08/04 08:52:52;;;;;;;4.27;0.77;;;;;;;;;;5001111;28;20214;-81
2023/08/04 08:56:00;;;;;;;1.43;0.77;;;;;;;;;;4999447;28;20202;-81
2023/08/04 08:59:04;;;;;;;1.13;0.60;;;;;;;;;;5010427;28;20233;-81
2023/08/04 09:02:09;;;;;;;1.37;0.70;;;;;;;;;;4992248;28;20213;-81
2023/08/04 09:05:14;;;;;;;2.00;0.77;;;;;;;;;;4997154;28;20201;-80
2023/08/04 09:08:18;;;;;;;0.93;0.70;;;;;;;;;;4998320;28;20569;-81
2023/08/04 09:11:22;;;;;;;0.83;0.60;;;;;;;;;;5008379;28;20202;-82
2023/08/04 09:14:26;;;;;;;0.67;0.60;;;;;;;;;;4990983;28;20197;-81
2023/08/04 09:17:33;;;;;;;1.47;0.80;;;;;;;;;;5014797;28;20205;-81
2023/08/04 09:20:37;;;;;;;1.33;0.70;;;;;;;;;;5017719;28;20205;-81
2023/08/04 09:23:49;;;;;;;1.87;0.80;;;;;;;;;;5017563;28;20198;-81
2023/08/04 09:26:54;;;;;;;1.37;0.67;;;;;;;;;;4995278;28;20206;-81
2023/08/04 09:29:59;;;;;;;1.20;0.70;;;;;;;;;;5013635;28;20229;-81
2023/08/04 09:33:08;;;;;;;1.27;0.70;;;;;;;;;;5003775;28;20560;-81
2023/08/04 09:36:15;;;;;;;0.77;0.60;;;;;;;;;;5004506;28;20197;-81
2023/08/04 09:39:20;;;;;;;1.67;0.70;;;;;;;;;;4997112;28;20212;-81
2023/08/04 09:42:24;;;;;;;1.23;0.70;;;;;;;;;;4993205;28;20177;-81
2023/08/04 09:45:32;;;;;;;2.93;0.63;;;;;;;;;;5004414;28;20201;-81
2023/08/04 09:48:37;;;;;;;1.07;0.60;;;;;;;;;;4992983;28;20225;-82
2023/08/04 09:51:41;;;;;;;2.50;1.03;;;;;;;;;;5004219;28;20189;-85
2023/08/04 09:54:45;;;;;;;1.80;0.60;;;;;;;;;;5002061;28;20202;-85
2023/08/04 09:57:50;;;;;;;1.67;0.67;;;;;;;;;;4981362;28;20205;-81
2023/08/04 10:00:54;;;;;;;1.07;0.60;;;;;;;;;;5016252;28;20529;-81
2023/08/04 10:03:59;;;;;;;1.27;0.73;;;;;;;;;;5004931;28;20173;-80
2023/08/04 10:07:03;;;;;;;1.40;0.80;;;;;;;;;;4980946;28;20553;-80
2023/08/04 10:10:08;;;;;;;2.90;0.80;;;;;;;;;;4994401;28;20222;-80
2023/08/04 10:13:13;;;;;;;1.23;0.80;;;;;;;;;;4991145;28;20559;-80
2023/08/04 10:16:18;;;;;;;2.07;0.70;;;;;;;;;;4983723;28;20194;-81
2023/08/04 10:19:23;;;;;;;1.13;0.70;;;;;;;;;;4984073;28;20214;-84
2023/08/04 10:22:28;;;;;;;1.30;0.80;;;;;;;;;;4984554;28;20186;-81
2023/08/04 10:25:32;;;;;;;3.43;1.10;;;;;;;;;;4984094;28;20182;-81
2023/08/04 10:29:05;;;;;;;2.97;2.43;;;;;;;;;;4972472;28;20680;-81
2023/08/04 10:32:09;;;;;;;1.23;1.07;;;;;;;;;;4995459;28;20176;-81
2023/08/04 10:35:16;;;;;;;1.93;1.00;;;;;;;;;;4973112;28;20178;-82
2023/08/04 10:38:20;;;;;;;1.97;0.80;;;;;;;;;;4972809;28;20681;-82
2023/08/04 10:41:24;;;;;;;1.40;1.00;;;;;;;;;;4996012;28;20634;-82
2023/08/04 10:45:07;;;;;;;1.10;0.70;;;;;;;;;;4973137;28;20178;-82
2023/08/04 10:48:17;;;;;;;1.90;0.80;;;;;;;;;;4995761;28;20222;-82
2023/08/04 10:51:25;;;;;;;1.77;0.80;;;;;;;;;;4987375;28;20187;-82
2023/08/04 10:54:29;;;;;;;1.30;0.90;;;;;;;;;;4986205;28;20548;-82
2023/08/04 10:57:35;;;;;;;3.23;0.90;;;;;;;;;;4975295;28;20179;-83
2023/08/04 11:00:42;;;;;;;0.97;0.70;;;;;;;;;;4975768;28;20182;-82
2023/08/04 11:03:49;;;;;;;4.27;0.67;;;;;;;;;;4986182;28;20196;-82
2023/08/04 11:06:57;;;;;;;2.20;1.00;;;;;;;;;;4985298;28;20200;-82
2023/08/04 11:10:05;;;;;;;1.70;0.90;;;;;;;;;;4973900;28;20219;-82
2023/08/04 11:13:10;;;;;;;3.23;0.90;;;;;;;;;;4972937;28;20213;-82
2023/08/04 11:16:17;;;;;;;4.50;0.83;;;;;;;;;;4983819;28;20177;-82
2023/08/04 11:19:21;;;;;;;2.43;0.70;;;;;;;;;;4995157;28;20220;-82
2023/08/04 11:22:25;;;;;;;1.70;0.90;;;;;;;;;;4983388;28;20188;-82
2023/08/04 11:25:36;;;;;;;3.57;0.90;;;;;;;;;;4971626;28;20179;-82
2023/08/04 11:28:40;;;;;;;1.40;0.80;;;;;;;;;;4982540;28;20220;-82
2023/08/04 11:31:47;;;;;;;0.97;0.67;;;;;;;;;;4983113;28;20181;-82
2023/08/04 11:34:55;;;;;;;1.53;0.70;;;;;;;;;;4982678;28;20211;-82
2023/08/04 11:38:00;;;;;;;2.53;0.80;;;;;;;;;;4982534;28;20189;-82
2023/08/04 11:41:09;;;;;;;1.87;0.70;;;;;;;;;;4982354;28;20184;-82
2023/08/04 11:44:15;;;;;;;2.83;0.70;;;;;;;;;;4982385;28;20186;-82
2023/08/04 11:47:19;;;;;;;1.57;0.60;;;;;;;;;;4994268;28;20203;-82
2023/08/04 11:50:26;;;;;;;0.80;0.60;;;;;;;;;;5034722;22;20275;-71
2023/08/04 11:53:30;;;;;;;1.00;0.70;;;;;;;;;;5013775;28;20211;-71
2023/08/04 11:56:38;;;;;;;1.23;0.70;;;;;;;;;;5013461;28;20187;-71
2023/08/04 11:59:48;;;;;;;2.33;0.80;;;;;;;;;;5013761;28;20604;-71
2023/08/04 12:02:57;;;;;;;1.47;0.67;;;;;;;;;;5013668;28;20187;-71
2023/08/04 12:06:01;;;;;;;0.80;0.60;;;;;;;;;;5013420;28;20181;-71
2023/08/04 12:09:06;;;;;;;3.97;0.68;;;;;;;;;;5001141;28;20176;-71
2023/08/04 12:12:10;;;;;;;1.10;0.50;;;;;;;;;;5012321;28;20562;-71
2023/08/04 12:15:14;;;;;;;2.40;0.80;;;;;;;;;;5012329;28;20214;-71
2023/08/04 12:18:23;;;;;;;2.00;0.90;;;;;;;;;;5013245;28;20191;-71
2023/08/04 12:21:27;;;;;;;1.60;0.70;;;;;;;;;;5012915;28;20568;-71
2023/08/04 12:24:31;;;;;;;0.73;0.70;;;;;;;;;;5013314;28;20182;-72
2023/08/04 12:27:35;;;;;;;0.95;0.68;;;;;;;;;;5013200;28;20189;-71
2023/08/04 12:30:40;;;;;;;1.23;0.70;;;;;;;;;;5014177;28;20219;-72
2023/08/04 12:33:44;;;;;;;2.55;0.68;;;;;;;;;;5016068;28;20219;-71
2023/08/04 12:36:48;;;;;;;0.60;0.52;;;;;;;;;;5016032;28;20179;-72
2023/08/04 12:39:52;;;;;;;1.38;0.57;;;;;;;;;;5016525;28;20181;-72
2023/08/04 12:42:56;;;;;;;1.23;0.63;;;;;;;;;;5004666;28;20285;-71
2023/08/04 12:46:00;;;;;;;1.85;0.82;;;;;;;;;;5016409;28;20181;-72
2023/08/04 12:49:04;;;;;;;2.03;0.75;;;;;;;;;;5015638;28;20196;-72
2023/08/04 12:52:09;;;;;;;1.50;0.65;;;;;;;;;;5016247;28;20220;-71
2023/08/04 12:55:13;;;;;;;0.75;0.52;;;;;;;;;;5015625;28;20552;-71
2023/08/04 12:58:17;;;;;;;0.80;0.40;;;;;;;;;;5016452;28;20179;-71
2023/08/04 13:01:21;;;;;;;1.15;0.50;;;;;;;;;;5015521;28;20691;-71
2023/08/04 13:04:25;;;;;;;4.07;0.77;;;;;;;;;;5015527;28;20181;-71
2023/08/04 13:07:29;;;;;;;2.25;0.73;;;;;;;;;;5015983;28;20200;-71
2023/08/04 13:10:34;;;;;;;0.90;0.60;;;;;;;;;;5016142;28;20205;-71
2023/08/04 13:13:38;;;;;;;1.75;0.75;;;;;;;;;;5015273;28;20541;-71
2023/08/04 13:16:43;;;;;;;9.65;1.20;;;;;;;;;;5016331;28;20201;-71
2023/08/04 13:19:47;;;;;;;4.32;0.77;;;;;;;;;;5016018;28;20203;-71
2023/08/04 13:22:51;;;;;;;1.38;0.60;;;;;;;;;;5016106;28;20186;-71
2023/08/04 13:25:55;;;;;;;2.38;0.60;;;;;;;;;;5015140;28;20176;-71
2023/08/04 13:28:59;;;;;;;1.13;0.50;;;;;;;;;;5015592;28;20204;-71
2023/08/04 13:32:04;;;;;;;4.03;1.10;;;;;;;;;;5015497;28;20221;-72
2023/08/04 13:35:08;;;;;;;1.73;0.55;;;;;;;;;;5015635;28;20218;-72
2023/08/04 13:38:12;;;;;;;2.75;1.10;;;;;;;;;;5014612;28;20176;-72
2023/08/04 13:41:16;;;;;;;8.23;1.45;;;;;;;;;;5015338;28;20218;-72
2023/08/04 13:44:20;;;;;;;1.77;0.93;;;;;;;;;;5015248;28;20521;-72
2023/08/04 13:47:25;;;;;;;2.55;0.98;;;;;;;;;;5015560;28;20192;-72
2023/08/04 13:50:29;;;;;;;5.38;0.80;;;;;;;;;;5003483;28;20204;-72
2023/08/04 13:53:33;;;;;;;1.15;0.70;;;;;;;;;;5015116;28;20182;-72
2023/08/04 13:56:39;;;;;;;1.75;0.85;;;;;;;;;;5015538;28;20179;-72
2023/08/04 13:59:43;;;;;;;1.38;0.70;;;;;;;;;;5014643;28;20188;-72
2023/08/04 14:02:47;;;;;;;1.45;0.57;;;;;;;;;;5015416;28;20183;-72
2023/08/04 14:05:56;;;;;;;1.85;0.70;;;;;;;;;;5015344;28;20173;-72
2023/08/04 14:09:02;;;;;;;4.88;0.60;;;;;;;;;;5002898;28;20641;-72
2023/08/04 14:12:06;;;;;;;3.08;0.80;;;;;;;;;;5015188;28;20222;-72
2023/08/04 14:15:10;;;;;;;2.15;0.80;;;;;;;;;;5015026;28;20211;-73
2023/08/04 14:18:14;;;;;;;1.83;0.80;;;;;;;;;;5015133;28;20191;-73
2023/08/04 14:21:18;;;;;;;2.80;0.80;;;;;;;;;;5014862;28;20226;-73
2023/08/04 14:24:22;;;;;;;2.20;0.90;;;;;;;;;;5014740;28;20176;-72
2023/08/04 14:27:26;;;;;;;1.95;0.60;;;;;;;;;;5013804;28;20533;-72
2023/08/04 14:30:30;;;;;;;1.65;0.65;;;;;;;;;;5014508;28;20525;-72
2023/08/04 14:33:34;;;;;;;2.13;0.73;;;;;;;;;;5013832;28;20183;-73
2023/08/04 14:36:39;;;;;;;1.92;0.80;;;;;;;;;;5014631;28;20198;-72
2023/08/04 14:39:43;;;;;;;1.05;0.70;;;;;;;;;;5013728;28;20657;-73
2023/08/04 14:42:46;;;;;;;1.70;0.80;;;;;;;;;;5013420;28;20183;-73
2023/08/04 14:45:51;;;;;;;4.45;0.70;;;;;;;;;;5002205;28;20183;-73
2023/08/04 14:48:55;;;;;;;1.10;0.85;;;;;;;;;;5014655;28;20186;-73
2023/08/04 14:51:59;;;;;;;2.85;0.70;;;;;;;;;;5014136;28;20221;-73
2023/08/04 14:55:04;;;;;;;1.30;0.80;;;;;;;;;;5001648;28;20209;-72
2023/08/04 14:58:09;;;;;;;1.23;0.77;;;;;;;;;;5014262;28;20185;-73
2023/08/04 15:01:13;;;;;;;1.97;0.90;;;;;;;;;;5013884;28;20221;-73
2023/08/04 15:04:17;;;;;;;1.50;0.80;;;;;;;;;;5014372;28;20172;-72
2023/08/04 15:07:21;;;;;;;1.70;0.80;;;;;;;;;;5015074;28;20631;-72
2023/08/04 15:10:25;;;;;;;1.20;1.00;;;;;;;;;;5015894;28;20622;-71
2023/08/04 15:13:29;;;;;;;2.03;0.60;;;;;;;;;;5002427;28;20183;-71
2023/08/04 15:16:34;;;;;;;2.40;0.80;;;;;;;;;;5013909;28;20175;-71
2023/08/04 15:19:41;;;;;;;3.00;0.80;;;;;;;;;;5013097;28;20181;-72
2023/08/04 15:22:45;;;;;;;2.97;0.80;;;;;;;;;;5014045;28;20514;-72
2023/08/04 15:25:51;;;;;;;2.27;0.80;;;;;;;;;;5013131;28;20184;-72
2023/08/04 15:28:55;;;;;;;1.30;0.70;;;;;;;;;;5012853;28;20204;-71
2023/08/04 15:32:00;;;;;;;2.03;1.10;;;;;;;;;;5012827;28;20212;-71
2023/08/04 15:35:04;;;;;;;1.10;0.67;;;;;;;;;;5013838;28;20214;-71
2023/08/04 15:38:08;;;;;;;1.53;0.80;;;;;;;;;;5012930;28;20190;-72
2023/08/04 15:41:13;;;;;;;2.50;0.90;;;;;;;;;;5013982;28;20224;-72
2023/08/04 15:44:17;;;;;;;1.83;0.70;;;;;;;;;;5013951;28;20183;-72
2023/08/04 15:47:21;;;;;;;2.87;0.93;;;;;;;;;;5013359;28;20185;-71
2023/08/04 15:50:25;;;;;;;2.30;1.20;;;;;;;;;;5013101;28;20211;-72
2023/08/04 15:53:29;;;;;;;0.77;0.70;;;;;;;;;;5013451;28;20203;-71
2023/08/04 15:56:33;;;;;;;2.27;0.90;;;;;;;;;;5013419;28;20525;-72
2023/08/04 15:59:38;;;;;;;2.27;0.90;;;;;;;;;;5013674;28;20179;-72
2023/08/04 16:02:42;;;;;;;4.60;0.93;;;;;;;;;;5013729;28;20190;-71
2023/08/04 16:05:46;;;;;;;0.90;0.70;;;;;;;;;;5014762;28;20180;-71
2023/08/04 16:08:50;;;;;;;1.30;0.70;;;;;;;;;;5016765;28;20181;-72
2023/08/04 16:11:54;;;;;;;1.77;0.83;;;;;;;;;;5017218;28;20219;-71
2023/08/04 16:14:59;;;;;;;1.50;0.80;;;;;;;;;;5017398;28;20208;-71
2023/08/04 16:18:03;;;;;;;1.30;0.70;;;;;;;;;;5017214;28;20203;-71
2023/08/04 16:21:07;;;;;;;1.37;0.70;;;;;;;;;;5017304;28;20228;-71
2023/08/04 16:24:11;;;;;;;0.93;0.63;;;;;;;;;;5016415;28;20180;-71
2023/08/04 16:27:15;;;;;;;2.87;0.93;;;;;;;;;;5005032;28;20184;-71
2023/08/04 16:30:20;;;;;;;1.90;0.77;;;;;;;;;;5016866;28;20177;-71
2023/08/04 16:33:24;;;;;;;1.07;0.93;;;;;;;;;;5016255;28;20188;-71
2023/08/04 16:36:28;;;;;;;1.47;0.90;;;;;;;;;;5016593;28;20215;-71
2023/08/04 16:39:32;;;;;;;4.00;0.90;;;;;;;;;;5016666;28;20535;-70
2023/08/04 16:42:36;;;;;;;1.47;0.80;;;;;;;;;;5016483;28;20222;-71
2023/08/04 16:45:41;;;;;;;1.00;0.73;;;;;;;;;;5016467;28;20183;-70
2023/08/04 16:48:46;;;;;;;1.03;0.57;;;;;;;;;;5016383;28;20199;-71
2023/08/04 16:51:50;;;;;;;2.30;0.87;;;;;;;;;;5017041;28;20219;-71
2023/08/04 16:54:55;;;;;;;2.23;0.50;;;;;;;;;;5016300;28;20210;-71
2023/08/04 16:58:02;;;;;;;1.63;0.80;;;;;;;;;;5016503;28;20174;-71
2023/08/04 17:01:11;;;;;;;0.67;0.40;;;;;;;;;;5015675;28;20711;-71
2023/08/04 17:04:15;;;;;;;1.13;0.43;;;;;;;;;;5015787;28;20186;-71
2023/08/04 17:07:19;;;;;;;0.37;0.37;;;;;;;;;;5016040;28;20189;-71
2023/08/04 17:10:23;;;;;;;4.07;0.70;;;;;;;;;;5016361;28;20201;-73
2023/08/04 17:13:28;;;;;;;0.70;0.50;;;;;;;;;;5016332;28;20181;-71
2023/08/04 17:16:32;;;;;;;0.37;0.30;;;;;;;;;;5015649;28;20557;-71
2023/08/04 17:19:37;;;;;;;0.50;0.40;;;;;;;;;;5016401;28;20193;-71
2023/08/04 17:22:41;;;;;;;4.40;0.50;;;;;;;;;;5003806;28;20221;-72
2023/08/04 17:25:47;;;;;;;4.63;0.80;;;;;;;;;;5015343;28;20532;-71
2023/08/04 17:28:54;;;;;;;1.63;0.50;;;;;;;;;;5004075;28;20201;-71
2023/08/04 17:31:59;;;;;;;1.03;0.50;;;;;;;;;;5015919;28;20221;-71
2023/08/04 17:35:04;;;;;;;1.77;0.50;;;;;;;;;;5003400;28;20205;-71
2023/08/04 17:38:08;;;;;;;2.77;0.60;;;;;;;;;;5016215;28;20178;-72
2023/08/04 17:41:13;;;;;;;0.97;0.60;;;;;;;;;;5014800;28;20220;-72
2023/08/04 17:44:16;;;;;;;2.23;0.80;;;;;;;;;;5016114;28;20508;-71
2023/08/04 17:47:21;;;;;;;1.07;0.50;;;;;;;;;;5015610;28;20181;-71
2023/08/04 17:50:25;;;;;;;0.93;0.60;;;;;;;;;;5014196;28;20209;-71
2023/08/04 17:53:29;;;;;;;1.30;0.60;;;;;;;;;;5015721;28;20177;-71
2023/08/04 17:56:33;;;;;;;1.47;0.70;;;;;;;;;;5014515;28;20553;-71
2023/08/04 17:59:37;;;;;;;2.43;0.80;;;;;;;;;;5014507;28;20178;-71
2023/08/04 18:02:42;;;;;;;2.30;0.50;;;;;;;;;;5015172;28;20221;-71
2023/08/04 18:05:46;;;;;;;2.03;0.50;;;;;;;;;;5015229;28;20197;-72
2023/08/04 18:08:50;;;;;;;0.60;0.50;;;;;;;;;;5015095;28;20182;-71
2023/08/04 18:11:54;;;;;;;1.30;0.47;;;;;;;;;;5014896;28;20699;-72
2023/08/04 18:14:58;;;;;;;1.53;0.60;;;;;;;;;;5013918;28;20624;-72
2023/08/04 18:18:02;;;;;;;1.00;0.60;;;;;;;;;;5014358;28;20193;-71
2023/08/04 18:21:06;;;;;;;1.30;0.70;;;;;;;;;;5002415;28;20691;-72
2023/08/04 18:24:11;;;;;;;0.77;0.60;;;;;;;;;;5015367;28;20525;-71
2023/08/04 18:27:15;;;;;;;0.90;0.70;;;;;;;;;;5014069;28;20181;-72